Terminal Aerodrome Forecast
Issued by NWS Cleveland, OH

Home | Current Version | Previous Version | Text Only | Print | Product List | Glossary On
Versions: 1 2 3 4 5 6 7 8 9 10 11 12 13 14 15 16 17 18 19 20 21 22 23
371
FTUS41 KCLE 030911 AAA
TAFMFD
TAF AMD
KMFD 030911Z 0309/0406 VRB03KT P6SM OVC060
     FM031400 34005KT P6SM OVC060
     FM031800 32006KT P6SM BKN040
     FM040000 VRB03KT P6SM BKN250=

USA.gov is the U.S. government's official web portal to all federal, state and local government web resources and services.